sensor_id;sensor_type;location;lat;lon;timestamp;pressure;altitude;pressure_sealevel;temperature;humidity
2675;BME280;1347;42.122;24.746;2023-10-09T00:02:08;99796.78;;;22.71;49.38
2675;BME280;1347;42.122;24.746;2023-10-09T00:04:35;99797.00;;;22.64;49.46
2675;BME280;1347;42.122;24.746;2023-10-09T00:07:03;99800.69;;;22.61;49.35
2675;BME280;1347;42.122;24.746;2023-10-09T00:09:34;99796.44;;;22.57;49.41
2675;BME280;1347;42.122;24.746;2023-10-09T00:12:14;99787.38;;;22.53;49.68
2675;BME280;1347;42.122;24.746;2023-10-09T00:14:41;99790.59;;;22.51;50.46
2675;BME280;1347;42.122;24.746;2023-10-09T00:17:14;99786.00;;;22.45;50.26
2675;BME280;1347;42.122;24.746;2023-10-09T00:19:44;99785.66;;;22.43;50.05
2675;BME280;1347;42.122;24.746;2023-10-09T00:22:14;99790.69;;;22.35;50.50
2675;BME280;1347;42.122;24.746;2023-10-09T00:24:51;99786.75;;;22.32;50.42
2675;BME280;1347;42.122;24.746;2023-10-09T00:27:37;99780.38;;;22.32;50.62
2675;BME280;1347;42.122;24.746;2023-10-09T00:30:08;99791.34;;;22.26;50.82
2675;BME280;1347;42.122;24.746;2023-10-09T00:32:37;99795.69;;;22.27;50.66
2675;BME280;1347;42.122;24.746;2023-10-09T00:35:15;99788.06;;;22.15;51.54
2675;BME280;1347;42.122;24.746;2023-10-09T00:37:59;99790.50;;;22.13;51.50
2675;BME280;1347;42.122;24.746;2023-10-09T00:40:40;99791.16;;;22.05;51.90
2675;BME280;1347;42.122;24.746;2023-10-09T00:43:14;99794.03;;;22.01;51.41
2675;BME280;1347;42.122;24.746;2023-10-09T00:45:41;99794.03;;;22.01;51.21
2675;BME280;1347;42.122;24.746;2023-10-09T00:48:10;99788.88;;;21.99;51.17
2675;BME280;1347;42.122;24.746;2023-10-09T00:50:40;99791.31;;;21.97;50.91
2675;BME280;1347;42.122;24.746;2023-10-09T00:53:15;99797.41;;;21.92;50.89
2675;BME280;1347;42.122;24.746;2023-10-09T00:55:44;99797.63;;;21.85;51.12
2675;BME280;1347;42.122;24.746;2023-10-09T00:58:22;99800.75;;;21.87;50.78
2675;BME280;1347;42.122;24.746;2023-10-09T01:00:56;99799.97;;;21.87;50.48
2675;BME280;1347;42.122;24.746;2023-10-09T01:03:25;99806.66;;;21.89;50.06
2675;BME280;1347;42.122;24.746;2023-10-09T01:05:58;99803.56;;;21.87;50.00
2675;BME280;1347;42.122;24.746;2023-10-09T01:08:41;99798.13;;;21.80;49.76
2675;BME280;1347;42.122;24.746;2023-10-09T01:11:12;99815.66;;;21.81;49.62
2675;BME280;1347;42.122;24.746;2023-10-09T01:13:46;99826.31;;;21.86;49.55
2675;BME280;1347;42.122;24.746;2023-10-09T01:16:21;99827.41;;;21.88;49.66
2675;BME280;1347;42.122;24.746;2023-10-09T01:18:51;99838.00;;;21.81;49.27
2675;BME280;1347;42.122;24.746;2023-10-09T01:21:20;99838.78;;;21.81;49.36
2675;BME280;1347;42.122;24.746;2023-10-09T01:23:51;99842.00;;;21.80;49.36
2675;BME280;1347;42.122;24.746;2023-10-09T01:26:35;99836.19;;;21.74;49.56
2675;BME280;1347;42.122;24.746;2023-10-09T01:29:10;99849.69;;;21.76;49.22
2675;BME280;1347;42.122;24.746;2023-10-09T01:31:40;99857.78;;;21.70;49.38
2675;BME280;1347;42.122;24.746;2023-10-09T01:34:12;99855.53;;;21.65;49.55
2675;BME280;1347;42.122;24.746;2023-10-09T01:36:40;99857.19;;;21.62;49.83
2675;BME280;1347;42.122;24.746;2023-10-09T01:39:09;99867.31;;;21.56;49.83
2675;BME280;1347;42.122;24.746;2023-10-09T01:41:49;99867.91;;;21.48;50.38
2675;BME280;1347;42.122;24.746;2023-10-09T01:44:18;99873.47;;;21.48;50.46
2675;BME280;1347;42.122;24.746;2023-10-09T01:46:45;99870.88;;;21.41;50.78
2675;BME280;1347;42.122;24.746;2023-10-09T01:49:12;99874.50;;;21.38;50.88
2675;BME280;1347;42.122;24.746;2023-10-09T01:51:47;99868.59;;;21.36;51.01
2675;BME280;1347;42.122;24.746;2023-10-09T01:54:17;99867.03;;;21.35;50.91
2675;BME280;1347;42.122;24.746;2023-10-09T01:56:59;99886.19;;;21.33;51.22
2675;BME280;1347;42.122;24.746;2023-10-09T01:59:32;99887.50;;;21.28;51.34
2675;BME280;1347;42.122;24.746;2023-10-09T02:02:03;99895.94;;;21.24;51.41
2675;BME280;1347;42.122;24.746;2023-10-09T02:04:39;99900.31;;;21.25;51.29
2675;BME280;1347;42.122;24.746;2023-10-09T02:07:07;99900.88;;;21.17;51.04
2675;BME280;1347;42.122;24.746;2023-10-09T02:09:35;99909.38;;;21.10;51.31
2675;BME280;1347;42.122;24.746;2023-10-09T02:12:10;99918.16;;;21.08;51.30
2675;BME280;1347;42.122;24.746;2023-10-09T02:14:38;99933.84;;;21.02;51.71
2675;BME280;1347;42.122;24.746;2023-10-09T02:17:07;99944.19;;;21.02;51.70
2675;BME280;1347;42.122;24.746;2023-10-09T02:19:44;99953.41;;;20.99;51.74
2675;BME280;1347;42.122;24.746;2023-10-09T02:22:14;99956.63;;;20.97;52.13
2675;BME280;1347;42.122;24.746;2023-10-09T02:24:44;99984.16;;;20.95;52.23
2675;BME280;1347;42.122;24.746;2023-10-09T02:27:23;99992.81;;;20.34;54.79
2675;BME280;1347;42.122;24.746;2023-10-09T02:30:10;100003.94;;;19.57;55.99
2675;BME280;1347;42.122;24.746;2023-10-09T02:32:53;100015.59;;;19.15;56.82
2675;BME280;1347;42.122;24.746;2023-10-09T02:35:32;100030.69;;;18.76;57.37
2675;BME280;1347;42.122;24.746;2023-10-09T02:38:04;100035.47;;;18.31;58.64
2675;BME280;1347;42.122;24.746;2023-10-09T02:40:41;100030.09;;;18.06;59.46
2675;BME280;1347;42.122;24.746;2023-10-09T02:43:27;100045.28;;;17.84;59.95
2675;BME280;1347;42.122;24.746;2023-10-09T02:45:59;100054.13;;;17.68;60.25
2675;BME280;1347;42.122;24.746;2023-10-09T02:48:38;100057.75;;;17.47;61.19
2675;BME280;1347;42.122;24.746;2023-10-09T02:51:08;100059.34;;;17.41;60.77
2675;BME280;1347;42.122;24.746;2023-10-09T02:53:40;100077.25;;;17.19;61.41
2675;BME280;1347;42.122;24.746;2023-10-09T02:56:09;100087.53;;;17.11;61.28
2675;BME280;1347;42.122;24.746;2023-10-09T02:58:39;100095.53;;;16.88;61.14
2675;BME280;1347;42.122;24.746;2023-10-09T03:01:10;100088.81;;;16.75;61.73
2675;BME280;1347;42.122;24.746;2023-10-09T03:03:39;100088.03;;;16.64;61.46
2675;BME280;1347;42.122;24.746;2023-10-09T03:06:06;100080.47;;;16.43;61.93
2675;BME280;1347;42.122;24.746;2023-10-09T03:08:37;100088.00;;;16.35;62.19
2675;BME280;1347;42.122;24.746;2023-10-09T03:11:04;100091.53;;;16.32;63.02
2675;BME280;1347;42.122;24.746;2023-10-09T03:13:40;100099.06;;;16.28;63.12
2675;BME280;1347;42.122;24.746;2023-10-09T03:16:08;100112.91;;;16.35;62.47
2675;BME280;1347;42.122;24.746;2023-10-09T03:18:39;100114.09;;;16.34;61.73
2675;BME280;1347;42.122;24.746;2023-10-09T03:21:07;100124.34;;;16.27;62.28
2675;BME280;1347;42.122;24.746;2023-10-09T03:23:34;100117.63;;;16.20;61.77
2675;BME280;1347;42.122;24.746;2023-10-09T03:26:01;100133.78;;;16.11;62.16
2675;BME280;1347;42.122;24.746;2023-10-09T03:28:29;100143.66;;;16.05;62.55
2675;BME280;1347;42.122;24.746;2023-10-09T03:30:57;100142.44;;;15.99;62.40
2675;BME280;1347;42.122;24.746;2023-10-09T03:33:28;100138.91;;;15.95;62.66
2675;BME280;1347;42.122;24.746;2023-10-09T03:35:58;100137.28;;;15.91;62.58
2675;BME280;1347;42.122;24.746;2023-10-09T03:38:25;100140.44;;;15.86;62.89
2675;BME280;1347;42.122;24.746;2023-10-09T03:40:55;100145.56;;;15.83;62.60
2675;BME280;1347;42.122;24.746;2023-10-09T03:43:22;100143.97;;;15.75;63.05
2675;BME280;1347;42.122;24.746;2023-10-09T03:45:50;100139.59;;;15.71;63.50
2675;BME280;1347;42.122;24.746;2023-10-09T03:48:20;100146.72;;;15.75;62.82
2675;BME280;1347;42.122;24.746;2023-10-09T03:50:51;100151.06;;;15.73;62.13
2675;BME280;1347;42.122;24.746;2023-10-09T03:53:33;100161.72;;;15.67;62.16
2675;BME280;1347;42.122;24.746;2023-10-09T03:56:01;100162.81;;;15.59;62.05
2675;BME280;1347;42.122;24.746;2023-10-09T03:58:31;100160.88;;;15.60;61.78
2675;BME280;1347;42.122;24.746;2023-10-09T04:00:59;100164.00;;;15.58;61.27
2675;BME280;1347;42.122;24.746;2023-10-09T04:03:27;100173.09;;;15.55;61.02
2675;BME280;1347;42.122;24.746;2023-10-09T04:05:54;100171.81;;;15.49;61.02
2675;BME280;1347;42.122;24.746;2023-10-09T04:08:21;100185.19;;;15.40;61.18
2675;BME280;1347;42.122;24.746;2023-10-09T04:10:54;100189.50;;;15.34;61.11
2675;BME280;1347;42.122;24.746;2023-10-09T04:13:27;100184.38;;;15.32;61.31
2675;BME280;1347;42.122;24.746;2023-10-09T04:15:59;100182.38;;;15.29;61.56
2675;BME280;1347;42.122;24.746;2023-10-09T04:18:35;100186.31;;;15.25;61.31
2675;BME280;1347;42.122;24.746;2023-10-09T04:21:04;100190.66;;;15.26;61.17
2675;BME280;1347;42.122;24.746;2023-10-09T04:23:45;100194.97;;;15.23;62.04
2675;BME280;1347;42.122;24.746;2023-10-09T04:26:48;100204.84;;;15.24;61.45
2675;BME280;1347;42.122;24.746;2023-10-09T04:29:22;100204.81;;;15.21;61.62
2675;BME280;1347;42.122;24.746;2023-10-09T04:31:53;100218.56;;;15.17;61.44
2675;BME280;1347;42.122;24.746;2023-10-09T04:34:23;100215.84;;;15.21;61.33
2675;BME280;1347;42.122;24.746;2023-10-09T04:36:55;100225.34;;;15.23;60.90
2675;BME280;1347;42.122;24.746;2023-10-09T04:39:26;100218.94;;;15.12;60.83
2675;BME280;1347;42.122;24.746;2023-10-09T04:42:03;100217.78;;;15.17;59.28
2675;BME280;1347;42.122;24.746;2023-10-09T04:44:53;100218.84;;;15.01;58.70
2675;BME280;1347;42.122;24.746;2023-10-09T04:47:37;100218.81;;;14.94;59.18
2675;BME280;1347;42.122;24.746;2023-10-09T04:50:07;100227.84;;;14.91;58.23
2675;BME280;1347;42.122;24.746;2023-10-09T04:52:37;100232.16;;;14.85;58.82
2675;BME280;1347;42.122;24.746;2023-10-09T04:55:17;100245.22;;;14.92;58.06
2675;BME280;1347;42.122;24.746;2023-10-09T04:57:46;100244.00;;;14.89;58.11
2675;BME280;1347;42.122;24.746;2023-10-09T05:00:26;100253.13;;;14.93;57.94
2675;BME280;1347;42.122;24.746;2023-10-09T05:03:16;100261.03;;;14.95;57.47
2675;BME280;1347;42.122;24.746;2023-10-09T05:05:56;100255.78;;;14.86;57.40
2675;BME280;1347;42.122;24.746;2023-10-09T05:08:45;100264.38;;;14.78;57.64
2675;BME280;1347;42.122;24.746;2023-10-09T05:11:15;100259.59;;;14.71;57.49
2675;BME280;1347;42.122;24.746;2023-10-09T05:14:00;100250.94;;;14.72;57.26
2675;BME280;1347;42.122;24.746;2023-10-09T05:16:38;100258.00;;;14.70;57.04
2675;BME280;1347;42.122;24.746;2023-10-09T05:19:20;100259.22;;;14.72;57.37
2675;BME280;1347;42.122;24.746;2023-10-09T05:22:00;100256.84;;;14.71;56.31
2675;BME280;1347;42.122;24.746;2023-10-09T05:24:33;100260.81;;;14.73;56.58
2675;BME280;1347;42.122;24.746;2023-10-09T05:27:09;100285.66;;;14.73;56.04
2675;BME280;1347;42.122;24.746;2023-10-09T05:29:44;100284.44;;;14.71;55.17
2675;BME280;1347;42.122;24.746;2023-10-09T05:32:30;100293.09;;;14.69;55.23
2675;BME280;1347;42.122;24.746;2023-10-09T05:35:00;100289.50;;;14.65;55.76
2675;BME280;1347;42.122;24.746;2023-10-09T05:37:42;100300.16;;;14.67;53.57
2675;BME280;1347;42.122;24.746;2023-10-09T05:40:12;100301.03;;;14.75;52.79
2675;BME280;1347;42.122;24.746;2023-10-09T05:42:48;100312.72;;;14.61;52.27
2675;BME280;1347;42.122;24.746;2023-10-09T05:45:25;100303.50;;;14.50;52.16
2675;BME280;1347;42.122;24.746;2023-10-09T05:48:10;100305.41;;;14.42;52.29
2675;BME280;1347;42.122;24.746;2023-10-09T05:50:54;100311.41;;;14.51;52.38
2675;BME280;1347;42.122;24.746;2023-10-09T05:53:39;100318.81;;;14.44;52.74
2675;BME280;1347;42.122;24.746;2023-10-09T05:56:29;100328.03;;;14.55;52.88
2675;BME280;1347;42.122;24.746;2023-10-09T05:59:10;100328.91;;;14.66;52.68
2675;BME280;1347;42.122;24.746;2023-10-09T06:01:53;100333.44;;;14.81;51.92
2675;BME280;1347;42.122;24.746;2023-10-09T06:04:38;100339.44;;;14.90;51.39
2675;BME280;1347;42.122;24.746;2023-10-09T06:07:20;100344.91;;;15.27;50.94
2675;BME280;1347;42.122;24.746;2023-10-09T06:09:51;100340.16;;;15.68;49.62
2675;BME280;1347;42.122;24.746;2023-10-09T06:12:18;100348.97;;;15.85;49.44
2675;BME280;1347;42.122;24.746;2023-10-09T06:14:59;100363.63;;;15.92;49.20
2675;BME280;1347;42.122;24.746;2023-10-09T06:17:44;100369.00;;;15.67;48.41
2675;BME280;1347;42.122;24.746;2023-10-09T06:20:16;100378.44;;;15.63;48.75
2675;BME280;1347;42.122;24.746;2023-10-09T06:25:43;100394.47;;;15.46;49.05
2675;BME280;1347;42.122;24.746;2023-10-09T06:28:17;100398.69;;;15.37;49.00
2675;BME280;1347;42.122;24.746;2023-10-09T06:30:58;100403.03;;;15.34;49.08
2675;BME280;1347;42.122;24.746;2023-10-09T06:33:45;100411.69;;;15.33;49.03
2675;BME280;1347;42.122;24.746;2023-10-09T06:36:32;100418.38;;;15.32;49.67
2675;BME280;1347;42.122;24.746;2023-10-09T06:38:59;100419.50;;;15.27;49.60
2675;BME280;1347;42.122;24.746;2023-10-09T06:41:41;100434.41;;;15.19;49.24
2675;BME280;1347;42.122;24.746;2023-10-09T06:44:10;100438.81;;;15.24;50.10
2675;BME280;1347;42.122;24.746;2023-10-09T06:46:57;100432.91;;;15.25;49.03
2675;BME280;1347;42.122;24.746;2023-10-09T06:49:33;100430.44;;;15.17;49.92
2675;BME280;1347;42.122;24.746;2023-10-09T06:52:02;100434.41;;;15.19;50.14
2675;BME280;1347;42.122;24.746;2023-10-09T06:54:53;100443.97;;;15.25;50.29
2675;BME280;1347;42.122;24.746;2023-10-09T06:57:23;100442.81;;;15.26;49.71
2675;BME280;1347;42.122;24.746;2023-10-09T07:00:09;100457.84;;;15.32;49.48
2675;BME280;1347;42.122;24.746;2023-10-09T07:02:53;100458.28;;;15.38;49.46
2675;BME280;1347;42.122;24.746;2023-10-09T07:05:21;100463.44;;;15.39;49.67
2675;BME280;1347;42.122;24.746;2023-10-09T07:07:57;100468.28;;;15.50;49.48
2675;BME280;1347;42.122;24.746;2023-10-09T07:10:44;100465.03;;;15.40;49.27
2675;BME280;1347;42.122;24.746;2023-10-09T07:13:18;100468.25;;;15.46;49.79
2675;BME280;1347;42.122;24.746;2023-10-09T07:15:49;100471.59;;;15.62;49.39
2675;BME280;1347;42.122;24.746;2023-10-09T07:18:33;100472.19;;;15.82;49.28
2675;BME280;1347;42.122;24.746;2023-10-09T07:21:14;100477.16;;;16.10;48.70
2675;BME280;1347;42.122;24.746;2023-10-09T07:23:53;100477.69;;;16.26;47.88
2675;BME280;1347;42.122;24.746;2023-10-09T07:26:22;100479.34;;;16.38;47.96
2675;BME280;1347;42.122;24.746;2023-10-09T07:29:05;100475.44;;;16.46;47.24
2675;BME280;1347;42.122;24.746;2023-10-09T07:31:48;100476.09;;;16.87;46.90
2675;BME280;1347;42.122;24.746;2023-10-09T07:34:23;100475.13;;;17.52;45.62
2675;BME280;1347;42.122;24.746;2023-10-09T07:37:19;100478.38;;;17.86;44.91
2675;BME280;1347;42.122;24.746;2023-10-09T07:39:49;100493.03;;;18.36;43.58
2675;BME280;1347;42.122;24.746;2023-10-09T07:42:23;100493.75;;;18.86;42.71
2675;BME280;1347;42.122;24.746;2023-10-09T07:45:11;100481.84;;;20.21;40.88
2675;BME280;1347;42.122;24.746;2023-10-09T07:47:59;100490.78;;;22.02;38.08
2675;BME280;1347;42.122;24.746;2023-10-09T07:50:35;100490.78;;;23.51;35.47
2675;BME280;1347;42.122;24.746;2023-10-09T07:53:06;100498.34;;;24.35;34.78
2675;BME280;1347;42.122;24.746;2023-10-09T07:55:44;100492.03;;;24.92;33.76
2675;BME280;1347;42.122;24.746;2023-10-09T07:58:20;100493.66;;;25.19;33.19
2675;BME280;1347;42.122;24.746;2023-10-09T08:00:52;100487.56;;;25.62;32.80
2675;BME280;1347;42.122;24.746;2023-10-09T08:03:41;100481.16;;;25.87;32.65
2675;BME280;1347;42.122;24.746;2023-10-09T08:06:11;100483.78;;;26.41;31.82
2675;BME280;1347;42.122;24.746;2023-10-09T08:08:56;100483.50;;;26.83;32.01
2675;BME280;1347;42.122;24.746;2023-10-09T08:11:36;100488.88;;;27.33;31.27
2675;BME280;1347;42.122;24.746;2023-10-09T08:14:21;100490.81;;;28.26;31.18
2675;BME280;1347;42.122;24.746;2023-10-09T08:17:09;100485.59;;;29.43;29.13
2675;BME280;1347;42.122;24.746;2023-10-09T08:19:41;100489.13;;;29.01;28.62
2675;BME280;1347;42.122;24.746;2023-10-09T08:22:23;100496.50;;;29.08;28.50
2675;BME280;1347;42.122;24.746;2023-10-09T08:25:08;100491.31;;;29.15;28.47
2675;BME280;1347;42.122;24.746;2023-10-09T08:27:52;100492.69;;;29.80;28.29
2675;BME280;1347;42.122;24.746;2023-10-09T08:30:23;100493.84;;;30.54;27.77
2675;BME280;1347;42.122;24.746;2023-10-09T08:33:11;100488.97;;;31.37;26.93
2675;BME280;1347;42.122;24.746;2023-10-09T08:35:55;100485.53;;;31.77;27.09
2675;BME280;1347;42.122;24.746;2023-10-09T08:38:30;100485.44;;;30.84;27.33
2675;BME280;1347;42.122;24.746;2023-10-09T08:41:09;100478.03;;;29.91;28.09
2675;BME280;1347;42.122;24.746;2023-10-09T08:43:50;100479.31;;;29.48;28.86
2675;BME280;1347;42.122;24.746;2023-10-09T08:46:22;100473.63;;;29.57;28.46
2675;BME280;1347;42.122;24.746;2023-10-09T08:48:50;100471.34;;;29.79;29.00
2675;BME280;1347;42.122;24.746;2023-10-09T08:51:18;100473.03;;;29.86;28.93
2675;BME280;1347;42.122;24.746;2023-10-09T08:53:46;100473.84;;;29.44;28.90
2675;BME280;1347;42.122;24.746;2023-10-09T08:56:13;100475.63;;;28.50;29.94
2675;BME280;1347;42.122;24.746;2023-10-09T08:58:48;100463.06;;;28.15;29.91
2675;BME280;1347;42.122;24.746;2023-10-09T09:01:17;100459.03;;;28.98;29.27
2675;BME280;1347;42.122;24.746;2023-10-09T09:03:46;100465.03;;;29.51;29.40
2675;BME280;1347;42.122;24.746;2023-10-09T09:06:14;100463.13;;;30.38;28.46
2675;BME280;1347;42.122;24.746;2023-10-09T09:08:43;100464.38;;;31.29;27.53
2675;BME280;1347;42.122;24.746;2023-10-09T09:11:11;100460.94;;;31.39;27.65
2675;BME280;1347;42.122;24.746;2023-10-09T09:13:40;100458.41;;;32.26;27.30
2675;BME280;1347;42.122;24.746;2023-10-09T09:16:15;100453.41;;;32.62;26.88
2675;BME280;1347;42.122;24.746;2023-10-09T09:18:50;100449.31;;;32.88;25.86
2675;BME280;1347;42.122;24.746;2023-10-09T09:21:32;100449.03;;;31.65;26.89
2675;BME280;1347;42.122;24.746;2023-10-09T09:24:05;100449.53;;;31.34;27.56
2675;BME280;1347;42.122;24.746;2023-10-09T09:26:41;100450.50;;;29.68;29.03
2675;BME280;1347;42.122;24.746;2023-10-09T09:29:12;100439.44;;;28.76;29.93
2675;BME280;1347;42.122;24.746;2023-10-09T09:31:51;100435.44;;;28.01;30.86
2675;BME280;1347;42.122;24.746;2023-10-09T09:34:18;100426.22;;;27.51;31.17
2675;BME280;1347;42.122;24.746;2023-10-09T09:36:53;100423.63;;;26.60;32.20
2675;BME280;1347;42.122;24.746;2023-10-09T09:39:25;100421.84;;;25.72;32.99
2675;BME280;1347;42.122;24.746;2023-10-09T09:41:56;100419.38;;;24.53;34.83
2675;BME280;1347;42.122;24.746;2023-10-09T09:44:33;100404.75;;;24.16;35.29
2675;BME280;1347;42.122;24.746;2023-10-09T09:47:09;100407.84;;;23.90;35.85
2675;BME280;1347;42.122;24.746;2023-10-09T09:49:41;100410.16;;;23.26;36.78
2675;BME280;1347;42.122;24.746;2023-10-09T09:52:09;100401.56;;;23.17;37.13
2675;BME280;1347;42.122;24.746;2023-10-09T09:54:37;100403.22;;;23.15;37.64
2675;BME280;1347;42.122;24.746;2023-10-09T09:57:05;100404.13;;;23.28;37.64
2675;BME280;1347;42.122;24.746;2023-10-09T09:59:39;100393.06;;;23.89;36.84
2675;BME280;1347;42.122;24.746;2023-10-09T10:02:22;100382.88;;;24.11;36.34
2675;BME280;1347;42.122;24.746;2023-10-09T10:04:56;100375.56;;;24.59;36.07
2675;BME280;1347;42.122;24.746;2023-10-09T10:07:26;100365.78;;;25.05;35.74
2675;BME280;1347;42.122;24.746;2023-10-09T10:09:57;100359.66;;;25.23;34.86
2675;BME280;1347;42.122;24.746;2023-10-09T10:12:49;100363.72;;;24.80;35.24
2675;BME280;1347;42.122;24.746;2023-10-09T10:15:57;100349.66;;;24.55;35.76
2675;BME280;1347;42.122;24.746;2023-10-09T10:18:30;100342.25;;;24.48;36.05
2675;BME280;1347;42.122;24.746;2023-10-09T10:21:10;100335.44;;;24.04;36.14
2675;BME280;1347;42.122;24.746;2023-10-09T10:23:43;100322.63;;;23.91;36.91
2675;BME280;1347;42.122;24.746;2023-10-09T10:26:20;100311.91;;;23.57;37.09
2675;BME280;1347;42.122;24.746;2023-10-09T10:29:14;100310.63;;;22.73;38.65
2675;BME280;1347;42.122;24.746;2023-10-09T10:31:54;100310.97;;;22.39;39.29
2675;BME280;1347;42.122;24.746;2023-10-09T10:34:23;100300.66;;;22.16;39.99
2675;BME280;1347;42.122;24.746;2023-10-09T10:36:50;100305.31;;;22.23;39.79
2675;BME280;1347;42.122;24.746;2023-10-09T10:39:25;100301.50;;;22.33;39.44
2675;BME280;1347;42.122;24.746;2023-10-09T10:42:14;100307.88;;;22.33;39.33
2675;BME280;1347;42.122;24.746;2023-10-09T10:44:59;100300.56;;;22.20;39.47
2675;BME280;1347;42.122;24.746;2023-10-09T10:47:28;100290.66;;;21.95;39.89
2675;BME280;1347;42.122;24.746;2023-10-09T10:50:01;100280.53;;;21.82;40.43
2675;BME280;1347;42.122;24.746;2023-10-09T10:52:41;100282.66;;;21.97;40.77
2675;BME280;1347;42.122;24.746;2023-10-09T10:55:11;100277.69;;;22.09;40.28
2675;BME280;1347;42.122;24.746;2023-10-09T10:58:15;100279.00;;;22.00;40.02
2675;BME280;1347;42.122;24.746;2023-10-09T11:00:53;100274.91;;;21.85;40.67
2675;BME280;1347;42.122;24.746;2023-10-09T11:03:40;100270.50;;;21.64;40.31
2675;BME280;1347;42.122;24.746;2023-10-09T11:06:33;100258.34;;;21.75;40.03
2675;BME280;1347;42.122;24.746;2023-10-09T11:09:04;100256.25;;;22.02;39.49
2675;BME280;1347;42.122;24.746;2023-10-09T11:11:47;100244.59;;;22.07;39.51
2675;BME280;1347;42.122;24.746;2023-10-09T11:14:15;100247.22;;;22.34;39.03
2675;BME280;1347;42.122;24.746;2023-10-09T11:16:43;100231.19;;;22.38;39.02
2675;BME280;1347;42.122;24.746;2023-10-09T11:19:14;100223.97;;;22.57;38.81
2675;BME280;1347;42.122;24.746;2023-10-09T11:22:00;100220.41;;;22.72;38.60
2675;BME280;1347;42.122;24.746;2023-10-09T11:24:46;100231.38;;;22.63;38.69
2675;BME280;1347;42.122;24.746;2023-10-09T11:27:26;100219.75;;;22.49;38.57
2675;BME280;1347;42.122;24.746;2023-10-09T11:29:58;100213.66;;;22.18;38.94
2675;BME280;1347;42.122;24.746;2023-10-09T11:32:37;100202.06;;;21.99;38.99
2675;BME280;1347;42.122;24.746;2023-10-09T11:35:12;100199.63;;;22.01;38.89
2675;BME280;1347;42.122;24.746;2023-10-09T11:37:56;100188.94;;;21.77;39.86
2675;BME280;1347;42.122;24.746;2023-10-09T11:40:30;100190.22;;;21.92;39.79
2675;BME280;1347;42.122;24.746;2023-10-09T11:43:00;100181.16;;;22.08;39.09
2675;BME280;1347;42.122;24.746;2023-10-09T11:45:29;100165.06;;;22.31;38.86
2675;BME280;1347;42.122;24.746;2023-10-09T11:47:56;100155.50;;;22.65;38.32
2675;BME280;1347;42.122;24.746;2023-10-09T11:50:40;100156.41;;;22.94;38.08
2675;BME280;1347;42.122;24.746;2023-10-09T11:53:11;100154.03;;;22.93;38.23
2675;BME280;1347;42.122;24.746;2023-10-09T11:56:00;100148.88;;;22.91;38.00
2675;BME280;1347;42.122;24.746;2023-10-09T11:58:26;100159.47;;;22.84;37.76
2675;BME280;1347;42.122;24.746;2023-10-09T12:00:53;100152.66;;;22.85;38.24
2675;BME280;1347;42.122;24.746;2023-10-09T12:03:25;100148.72;;;22.82;37.93
2675;BME280;1347;42.122;24.746;2023-10-09T12:05:56;100141.84;;;22.18;38.95
2675;BME280;1347;42.122;24.746;2023-10-09T12:08:25;100137.47;;;22.33;38.50
2675;BME280;1347;42.122;24.746;2023-10-09T12:10:54;100131.91;;;22.50;38.38
2675;BME280;1347;42.122;24.746;2023-10-09T12:13:22;100140.38;;;22.62;37.98
2675;BME280;1347;42.122;24.746;2023-10-09T12:15:49;100133.59;;;22.47;38.54
2675;BME280;1347;42.122;24.746;2023-10-09T12:18:19;100118.00;;;22.30;38.80
2675;BME280;1347;42.122;24.746;2023-10-09T12:20:47;100116.47;;;22.29;39.09
2675;BME280;1347;42.122;24.746;2023-10-09T12:23:17;100115.75;;;22.25;39.11
2675;BME280;1347;42.122;24.746;2023-10-09T12:25:47;100110.84;;;22.13;39.41
2675;BME280;1347;42.122;24.746;2023-10-09T12:28:15;100122.13;;;22.25;39.44
2675;BME280;1347;42.122;24.746;2023-10-09T12:30:46;100113.03;;;22.21;39.38
2675;BME280;1347;42.122;24.746;2023-10-09T12:33:16;100104.56;;;22.25;39.69
2675;BME280;1347;42.122;24.746;2023-10-09T12:35:43;100101.00;;;22.24;39.74
2675;BME280;1347;42.122;24.746;2023-10-09T12:38:12;100090.34;;;22.35;38.64
2675;BME280;1347;42.122;24.746;2023-10-09T12:40:45;100089.03;;;22.40;38.33
2675;BME280;1347;42.122;24.746;2023-10-09T12:43:17;100086.59;;;22.42;38.58
2675;BME280;1347;42.122;24.746;2023-10-09T12:45:45;100083.91;;;22.38;38.86
2675;BME280;1347;42.122;24.746;2023-10-09T12:48:12;100079.59;;;22.34;38.28
2675;BME280;1347;42.122;24.746;2023-10-09T12:50:40;100073.25;;;22.33;38.98
2675;BME280;1347;42.122;24.746;2023-10-09T12:53:10;100074.72;;;22.22;38.89
2675;BME280;1347;42.122;24.746;2023-10-09T12:55:42;100058.75;;;22.06;38.76
2675;BME280;1347;42.122;24.746;2023-10-09T12:58:11;100065.81;;;21.91;39.24
2675;BME280;1347;42.122;24.746;2023-10-09T13:00:41;100068.72;;;21.87;39.11
2675;BME280;1347;42.122;24.746;2023-10-09T13:03:14;100064.59;;;21.56;39.18
2675;BME280;1347;42.122;24.746;2023-10-09T13:05:47;100060.09;;;21.62;39.12
2675;BME280;1347;42.122;24.746;2023-10-09T13:08:19;100049.88;;;21.55;39.48
2675;BME280;1347;42.122;24.746;2023-10-09T13:10:50;100042.56;;;21.61;39.57
2675;BME280;1347;42.122;24.746;2023-10-09T13:13:31;100038.97;;;21.61;38.88
2675;BME280;1347;42.122;24.746;2023-10-09T13:16:08;100038.91;;;21.64;38.70
2675;BME280;1347;42.122;24.746;2023-10-09T13:18:38;100029.81;;;21.60;38.61
2675;BME280;1347;42.122;24.746;2023-10-09T13:21:05;100021.31;;;21.67;38.71
2675;BME280;1347;42.122;24.746;2023-10-09T13:23:32;100013.00;;;21.64;38.98
2675;BME280;1347;42.122;24.746;2023-10-09T13:26:08;99997.13;;;21.61;38.72
2675;BME280;1347;42.122;24.746;2023-10-09T13:28:49;100003.00;;;21.66;38.95
2675;BME280;1347;42.122;24.746;2023-10-09T13:31:17;100011.03;;;21.45;38.62
2675;BME280;1347;42.122;24.746;2023-10-09T13:33:47;100007.03;;;21.46;38.96
2675;BME280;1347;42.122;24.746;2023-10-09T13:36:15;100016.03;;;21.53;39.03
2675;BME280;1347;42.122;24.746;2023-10-09T13:38:52;100008.88;;;21.52;38.79
2675;BME280;1347;42.122;24.746;2023-10-09T13:41:20;100000.81;;;21.38;38.98
2675;BME280;1347;42.122;24.746;2023-10-09T13:43:48;99994.66;;;21.47;38.93
2675;BME280;1347;42.122;24.746;2023-10-09T13:46:17;99999.97;;;21.41;38.96